GOSM

Ouro Sogui Airport

Matam, Senegal
METAR GOSM 211500Z 28004KT CAVOK 38/09 Q1008
Observed Flight Rules
Apr-21 @ 15:00 UTC (34 minutes ago) Visual Flight Rules
Wind Visibility Clouds
280° at 4 knots 10,000+ meters
  • Clear skies
Temperatures Readings
Current 38°C / 100°F
Dewpoint 9°C / 48°F
Humidity 17%
Altimeter 29.76" Hg
Pressure 1008 hPa
Elevation 17
METAR GOSM 211500Z 28004KT CAVOK 38/09 Q1008
Observed Flight Rules
Apr-21 @ 15:00 UTC
(34 minutes ago)
VFR
Wind Visibility
280° at 4 knots 10,000+ meters
Clouds
  • Clear skies
Temperature Dewpoint
38°C / 100°F 9°C / 48°F
Humidity Altimeter Pressure
17% 29.76" Hg 1008 hPa